.
WxDataArchive / Data Records for 2008-01-14
2008-01-13 January 2008 2008-01-15

Data Records for Monday, 14 January 2008

Time	Temp	Chill	HIndex	Humid	Dewpt	 Wind 	HiWind	WindDir	Rain 	Barom 
-----	----	-----	------	-----	-----	------	------	-------	-----	----- 
00:00	30.6	30.6	30.6	83	26.1	2	5	270	0.00	29.907 
00:05	30.6	30.6	30.6	83	26.1	2	9	270	0.00	29.906 
00:10	30.4	30.4	30.4	83	25.9	2	5	270	0.00	29.905 
00:15	30.4	26.2	30.4	83	25.9	4	8	270	0.00	29.904 
00:20	30.4	30.4	30.4	83	25.9	2	6	248	0.00	29.906 
00:25	30.4	26.2	30.4	83	25.9	4	12	270	0.00	29.905 
00:30	30.4	30.4	30.4	83	25.9	2	5	270	0.00	29.905 
00:35	30.4	30.4	30.4	83	25.9	2	5	270	0.00	29.902 
00:40	30.3	30.3	30.3	83	25.8	3	8	270	0.00	29.901 
00:45	30.3	26.1	30.3	82	25.5	4	14	270	0.00	29.901 
00:50	30.1	30.1	30.1	83	25.6	3	7	270	0.00	29.900 
00:55	30.1	30.1	30.1	83	25.6	3	7	270	0.00	29.901 
01:00	30.0	30.0	30.0	83	25.5	3	10	270	0.00	29.900 
01:05	30.0	30.0	30.0	84	25.8	2	5	270	0.00	29.902 
01:10	29.8	29.8	29.8	83	25.3	3	6	270	0.00	29.902 
01:15	29.8	29.8	29.8	83	25.3	3	8	270	0.00	29.903 
01:20	29.8	29.8	29.8	84	25.6	2	4	248	0.00	29.903 
01:25	29.8	29.8	29.8	84	25.6	2	5	270	0.00	29.903 
01:30	29.8	25.5	29.8	84	25.6	4	11	270	0.00	29.903 
01:35	29.7	29.7	29.7	84	25.5	3	10	248	0.00	29.904 
01:40	29.5	25.2	29.5	84	25.3	4	11	248	0.00	29.904 
01:45	29.5	24.1	29.5	83	25.0	5	10	270	0.00	29.904 
01:50	29.5	29.5	29.5	84	25.3	3	9	248	0.00	29.905 
01:55	29.4	25.1	29.4	83	24.9	4	9	248	0.00	29.907 
02:00	29.4	29.4	29.4	84	25.2	3	7	270	0.00	29.908 
02:05	29.4	29.4	29.4	84	25.2	3	13	270	0.00	29.911 
02:10	29.3	25.0	29.3	84	25.1	4	12	292	0.00	29.912 
02:15	29.3	29.3	29.3	84	25.1	3	10	248	0.00	29.913 
02:20	29.1	29.1	29.1	84	24.9	2	10	248	0.00	29.914 
02:25	29.0	29.0	29.0	84	24.8	3	9	270	0.00	29.915 
02:30	29.0	29.0	29.0	85	25.1	3	7	270	0.00	29.917 
02:35	28.8	24.4	28.8	85	24.9	4	8	248	0.00	29.919 
02:40	28.8	28.8	28.8	85	24.9	3	7	248	0.00	29.920 
02:45	28.8	28.8	28.8	85	24.9	3	12	270	0.00	29.920 
02:50	28.8	28.8	28.8	85	24.9	3	9	270	0.00	29.920 
02:55	28.7	28.7	28.7	85	24.8	2	5	248	0.00	29.921 
03:00	28.7	28.7	28.7	84	24.5	3	7	270	0.00	29.922 
03:05	28.5	28.5	28.5	84	24.3	3	11	270	0.00	29.924 
03:10	28.5	24.0	28.5	84	24.3	4	12	270	0.00	29.925 
03:15	28.4	23.9	28.4	83	23.9	4	11	270	0.00	29.928 
03:20	28.4	23.9	28.4	83	23.9	4	13	248	0.00	29.926 
03:25	28.4	23.9	28.4	83	23.9	4	10	270	0.00	29.927 
03:30	28.4	23.9	28.4	83	23.9	4	9	270	0.00	29.927 
03:35	28.4	28.4	28.4	83	23.9	2	5	270	0.00	29.927 
03:40	28.4	28.4	28.4	83	23.9	2	6	248	0.00	29.925 
03:45	28.4	28.4	28.4	83	23.9	1	5	270	0.00	29.924 
03:50	28.4	28.4	28.4	83	23.9	2	6	248	0.00	29.924 
03:55	28.2	28.2	28.2	83	23.7	3	7	270	0.00	29.924 
04:00	28.2	28.2	28.2	82	23.4	3	10	270	0.00	29.924 
04:05	28.1	23.6	28.1	82	23.3	4	9	248	0.00	29.925 
04:10	28.1	28.1	28.1	82	23.3	2	6	270	0.00	29.923 
04:15	27.9	23.3	27.9	82	23.1	4	11	270	0.00	29.922 
04:20	27.9	27.9	27.9	81	22.8	3	7	270	0.00	29.923 
04:25	27.9	27.9	27.9	81	22.8	3	7	248	0.00	29.924 
04:30	27.8	23.2	27.8	81	22.7	4	10	270	0.00	29.923 
04:35	27.8	23.2	27.8	81	22.7	4	7	270	0.00	29.924 
04:40	27.8	27.8	27.8	80	22.4	3	11	270	0.00	29.926 
04:45	27.6	21.9	27.6	80	22.3	5	15	270	0.00	29.925 
04:50	27.6	23.0	27.6	80	22.3	4	11	270	0.00	29.925 
04:55	27.5	22.9	27.5	80	22.2	4	10	248	0.00	29.927 
05:00	27.5	27.5	27.5	80	22.2	3	9	270	0.00	29.926 
05:05	27.5	22.9	27.5	79	21.9	4	12	248	0.00	29.927 
05:10	27.3	27.3	27.3	80	22.0	3	8	248	0.00	29.926 
05:15	27.3	22.6	27.3	79	21.7	4	10	248	0.00	29.928 
05:20	27.3	22.6	27.3	79	21.7	4	10	248	0.00	29.928 
05:25	27.3	27.3	27.3	80	22.0	3	9	248	0.00	29.929 
05:30	27.3	27.3	27.3	80	22.0	2	7	248	0.00	29.927 
05:35	27.3	27.3	27.3	80	22.0	3	9	248	0.00	29.928 
05:40	27.3	27.3	27.3	79	21.7	3	10	270	0.00	29.927 
05:45	27.2	22.5	27.2	78	21.3	4	8	248	0.00	29.928 
05:50	27.2	22.5	27.2	78	21.3	4	7	248	0.00	29.927 
05:55	27.2	22.5	27.2	78	21.3	4	11	270	0.00	29.931 
06:00	27.2	22.5	27.2	78	21.3	4	11	270	0.00	29.932 
06:05	27.0	22.3	27.0	78	21.1	4	10	270	0.00	29.936 
06:10	26.9	26.9	26.9	78	21.0	2	7	248	0.00	29.936 
06:15	26.9	26.9	26.9	79	21.3	1	5	248	0.00	29.937 
06:20	26.9	26.9	26.9	79	21.3	1	6	248	0.00	29.937 
06:25	26.7	26.7	26.7	78	20.8	3	10	270	0.00	29.936 
06:30	26.7	26.7	26.7	77	20.5	3	9	270	0.00	29.936 
06:35	26.7	26.7	26.7	77	20.5	2	10	270	0.00	29.935 
06:40	26.6	26.6	26.6	77	20.4	2	5	248	0.00	29.933 
06:45	26.6	26.6	26.6	77	20.4	2	6	248	0.00	29.935 
06:50	26.6	26.6	26.6	77	20.4	2	9	248	0.00	29.932 
06:55	26.6	26.6	26.6	77	20.4	2	7	270	0.00	29.933 
07:00	26.6	26.6	26.6	76	20.1	2	5	248	0.00	29.935 
07:05	26.6	26.6	26.6	75	19.8	3	7	248	0.00	29.938 
07:10	26.7	22.0	26.7	74	19.5	4	10	248	0.00	29.937 
07:15	26.7	26.7	26.7	75	19.9	3	10	270	0.00	29.937 
07:20	26.7	26.7	26.7	75	19.9	2	7	248	0.00	29.937 
07:25	26.7	26.7	26.7	76	20.2	2	6	248	0.00	29.936 
07:30	26.7	26.7	26.7	77	20.5	2	6	270	0.00	29.935 
07:35	26.7	26.7	26.7	77	20.5	2	5	248	0.00	29.936 
07:40	26.7	26.7	26.7	77	20.5	2	7	248	0.00	29.937 
07:45	26.7	26.7	26.7	75	19.9	3	7	248	0.00	29.938 
07:50	26.7	26.7	26.7	78	20.8	1	4	248	0.00	29.939 
07:55	26.7	26.7	26.7	78	20.8	3	7	248	0.00	29.939 
08:00	26.7	26.7	26.7	78	20.8	2	5	248	0.00	29.940 
08:05	26.7	26.7	26.7	79	21.1	1	7	248	0.00	29.940 
08:10	26.7	26.7	26.7	79	21.1	3	7	248	0.00	29.940 
08:15	26.7	26.7	26.7	79	21.1	3	6	248	0.00	29.940 
08:20	26.7	26.7	26.7	80	21.4	2	6	270	0.00	29.941 
08:25	26.7	26.7	26.7	80	21.4	1	4	248	0.00	29.941 
08:30	26.7	26.7	26.7	80	21.4	1	4	248	0.00	29.941 
08:35	26.7	26.7	26.7	81	21.7	1	5	248	0.00	29.941 
08:40	26.9	26.9	26.9	81	21.9	1	6	248	0.00	29.941 
08:45	26.9	26.9	26.9	80	21.6	2	5	248	0.00	29.940 
08:50	26.9	26.9	26.9	80	21.6	3	7	270	0.00	29.941 
08:55	26.9	26.9	26.9	80	21.6	2	6	248	0.00	29.942 
09:00	26.9	26.9	26.9	80	21.6	2	5	248	0.00	29.945 
09:05	26.9	26.9	26.9	80	21.6	1	4	270	0.00	29.948 
09:10	27.0	27.0	27.0	81	22.0	2	6	270	0.00	29.949 
09:15	27.0	27.0	27.0	81	22.0	2	8	248	0.00	29.952 
09:20	26.9	26.9	26.9	81	21.9	3	6	248	0.00	29.954 
09:25	26.9	26.9	26.9	82	22.2	2	5	248	0.00	29.954 
09:30	26.7	26.7	26.7	83	22.2	2	7	248	0.00	29.955 
09:35	26.7	26.7	26.7	83	22.2	3	7	248	0.00	29.956 
09:40	26.9	26.9	26.9	83	22.4	2	7	248	0.00	29.955 
09:45	27.0	27.0	27.0	83	22.5	1	3	225	0.00	29.955 
09:50	27.0	27.0	27.0	84	22.8	2	6	248	0.00	29.956 
09:55	27.0	27.0	27.0	84	22.8	2	5	248	0.00	29.957 
10:00	27.0	27.0	27.0	84	22.8	2	4	248	0.00	29.956 
10:05	27.2	27.2	27.2	83	22.7	2	9	248	0.00	29.956 
10:10	27.2	27.2	27.2	82	22.4	3	7	270	0.00	29.958 
10:15	27.2	27.2	27.2	81	22.2	3	7	248	0.00	29.958 
10:20	27.3	27.3	27.3	81	22.3	3	7	270	0.00	29.958 
10:25	27.3	27.3	27.3	82	22.5	2	5	270	0.00	29.960 
10:30	27.5	27.5	27.5	83	23.0	3	9	248	0.00	29.960 
10:35	27.6	27.6	27.6	83	23.1	2	6	248	0.00	29.959 
10:40	27.8	27.8	27.8	81	22.7	3	10	248	0.00	29.959 
10:45	27.9	23.3	27.9	81	22.8	4	11	248	0.00	29.960 
10:50	27.9	27.9	27.9	81	22.8	3	10	248	0.00	29.961 
10:55	27.9	27.9	27.9	81	22.8	3	9	248	0.00	29.959 
11:00	27.9	27.9	27.9	81	22.8	3	6	270	0.00	29.959 
11:05	27.8	27.8	27.8	80	22.4	2	6	248	0.00	29.958 
11:10	27.9	27.9	27.9	80	22.5	3	9	248	0.00	29.958 
11:15	28.1	28.1	28.1	80	22.7	3	8	270	0.00	29.956 
11:20	28.4	28.4	28.4	79	22.7	3	9	270	0.00	29.956 
11:25	28.5	28.5	28.5	77	22.2	3	9	270	0.00	29.954 
11:30	28.7	28.7	28.7	78	22.7	2	5	270	0.00	29.953 
11:35	28.5	24.0	28.5	77	22.2	4	13	270	0.00	29.953 
11:40	28.5	28.5	28.5	77	22.2	3	6	270	0.00	29.954 
11:45	28.5	28.5	28.5	78	22.5	2	9	248	0.00	29.952 
11:50	28.4	23.9	28.4	77	22.1	4	10	248	0.00	29.953 
11:55	28.2	28.2	28.2	77	21.9	3	13	270	0.00	29.952 
12:00	28.4	28.4	28.4	78	22.4	3	9	270	0.00	29.949 
12:05	28.5	28.5	28.5	79	22.8	2	7	270	0.00	29.948 
12:10	28.4	28.4	28.4	78	22.4	3	15	270	0.00	29.949 
12:15	28.4	23.9	28.4	77	22.1	4	11	270	0.00	29.947 
12:20	28.4	23.9	28.4	77	22.1	4	10	270	0.00	29.949 
12:25	28.1	21.6	28.1	76	21.5	6	15	270	0.00	29.946 
12:30	28.1	23.6	28.1	77	21.8	4	11	270	0.00	29.942 
12:35	28.2	23.7	28.2	76	21.6	4	14	270	0.00	29.944 
12:40	28.2	23.7	28.2	75	21.3	4	12	270	0.00	29.944 
12:45	28.2	22.6	28.2	74	21.0	5	11	270	0.00	29.942 
12:50	28.4	28.4	28.4	76	21.8	3	7	270	0.00	29.942 
12:55	28.4	23.9	28.4	75	21.5	4	7	270	0.00	29.940 
13:00	28.4	28.4	28.4	75	21.5	3	11	270	0.00	29.940 
13:05	28.4	28.4	28.4	75	21.5	3	12	248	0.00	29.942 
13:10	28.2	28.2	28.2	76	21.6	3	6	248	0.00	29.941 
13:15	28.2	23.7	28.2	75	21.3	4	10	270	0.00	29.941 
13:20	28.2	28.2	28.2	76	21.6	2	6	248	0.00	29.939 
13:25	28.2	23.7	28.2	75	21.3	4	12	270	0.00	29.934 
13:30	28.4	28.4	28.4	76	21.8	2	5	248	0.00	29.930 
13:35	28.7	28.7	28.7	76	22.1	2	7	248	0.00	29.931 
13:40	28.7	24.3	28.7	75	21.8	4	11	248	0.00	29.933 
13:45	28.8	24.4	28.8	74	21.6	4	7	270	0.00	29.933 
13:50	28.5	24.0	28.5	75	21.6	4	12	270	0.00	29.934 
13:55	28.5	28.5	28.5	76	21.9	3	7	248	0.00	29.935 
14:00	28.5	24.0	28.5	76	21.9	4	13	270	0.00	29.933 
14:05	28.4	23.9	28.4	75	21.5	4	13	270	0.00	29.934 
14:10	28.4	28.4	28.4	75	21.5	3	7	270	0.00	29.937 
14:15	28.2	28.2	28.2	76	21.6	3	7	270	0.00	29.941 
14:20	28.2	28.2	28.2	76	21.6	3	7	248	0.00	29.941 
14:25	28.1	28.1	28.1	76	21.5	3	5	270	0.00	29.941 
14:30	27.9	27.9	27.9	76	21.3	3	11	270	0.00	29.942 
14:35	27.8	27.8	27.8	76	21.2	3	7	270	0.00	29.943 
14:40	27.8	27.8	27.8	76	21.2	2	4	270	0.00	29.943 
14:45	27.6	27.6	27.6	77	21.4	3	10	270	0.00	29.946 
14:50	27.6	23.0	27.6	77	21.4	4	13	270	0.00	29.946 
14:55	27.5	27.5	27.5	77	21.3	3	8	270	0.00	29.948 
15:00	27.5	27.5	27.5	77	21.3	3	6	270	0.00	29.949 
15:05	27.3	22.6	27.3	77	21.1	4	10	270	0.00	29.952 
15:10	27.3	27.3	27.3	78	21.4	2	5	270	0.00	29.954 
15:15	27.3	22.6	27.3	78	21.4	4	13	270	0.00	29.958 
15:20	27.3	27.3	27.3	78	21.4	3	7	270	0.00	29.958 
15:25	27.2	27.2	27.2	79	21.6	2	9	270	0.00	29.958 
15:30	27.2	27.2	27.2	80	21.9	3	7	270	0.00	29.959 
15:35	27.0	22.3	27.0	80	21.7	4	9	270	0.00	29.960 
15:40	27.0	27.0	27.0	80	21.7	2	5	270	0.00	29.963 
15:45	26.7	22.0	26.7	80	21.4	4	13	270	0.00	29.963 
15:50	26.6	21.8	26.6	81	21.6	4	13	270	0.00	29.963 
15:55	26.6	26.6	26.6	81	21.6	3	6	270	0.00	29.965 
16:00	26.4	26.4	26.4	81	21.4	3	6	270	0.00	29.968 
16:05	26.4	26.4	26.4	82	21.7	3	7	270	0.00	29.972 
16:10	26.4	26.4	26.4	81	21.4	3	9	270	0.00	29.973 
16:15	26.3	26.3	26.3	81	21.3	3	6	270	0.00	29.975 
16:20	26.3	26.3	26.3	81	21.3	3	9	270	0.00	29.976 
16:25	26.3	21.5	26.3	80	21.0	4	11	270	0.00	29.976 
16:30	26.3	26.3	26.3	80	21.0	2	7	270	0.00	29.976 
16:35	26.3	26.3	26.3	81	21.3	3	7	270	0.00	29.976 
16:40	26.1	26.1	26.1	81	21.1	3	11	248	0.00	29.975 
16:45	26.0	26.0	26.0	81	21.0	3	9	270	0.00	29.976 
16:50	25.8	25.8	25.8	81	20.8	3	7	270	0.00	29.975 
16:55	25.7	20.8	25.7	80	20.4	4	10	270	0.00	29.976 
17:00	25.7	25.7	25.7	81	20.7	3	8	270	0.00	29.977 
17:05	25.7	25.7	25.7	81	20.7	2	4	270	0.00	29.981 
17:10	25.7	25.7	25.7	81	20.7	2	6	248	0.00	29.980 
17:15	25.6	25.6	25.6	81	20.6	3	7	270	0.00	29.981 
17:20	25.6	25.6	25.6	80	20.3	3	11	270	0.00	29.983 
17:25	25.4	20.5	25.4	80	20.1	4	12	270	0.00	29.986 
17:30	25.4	25.4	25.4	80	20.1	3	7	270	0.00	29.983 
17:35	25.3	25.3	25.3	80	20.0	2	4	270	0.00	29.982 
17:40	25.3	25.3	25.3	80	20.0	3	6	270	0.00	29.989 
17:45	25.3	25.3	25.3	81	20.3	3	10	270	0.00	29.991 
17:50	25.1	25.1	25.1	80	19.8	3	11	248	0.00	29.992 
17:55	25.1	25.1	25.1	80	19.8	3	10	248	0.00	29.992 
18:00	25.0	25.0	25.0	80	19.7	3	10	248	0.00	29.993 
18:05	25.0	25.0	25.0	80	19.7	3	10	248	0.00	29.993 
18:10	25.0	25.0	25.0	80	19.7	3	7	248	0.00	29.993 
18:15	25.0	25.0	25.0	81	20.0	2	4	248	0.00	29.992 
18:20	25.0	25.0	25.0	81	20.0	2	7	248	0.00	29.993 
18:25	25.0	25.0	25.0	81	20.0	3	9	248	0.00	29.993 
18:30	24.8	24.8	24.8	81	19.8	3	9	248	0.00	29.994 
18:35	24.8	24.8	24.8	81	19.8	2	4	248	0.00	29.996 
18:40	24.8	24.8	24.8	81	19.8	3	9	270	0.00	29.998 
18:45	24.7	24.7	24.7	80	19.4	3	7	248	0.00	30.001 
18:50	24.7	24.7	24.7	80	19.4	2	4	270	0.00	30.003 
18:55	24.7	24.7	24.7	80	19.4	1	2	270	0.00	30.005 
19:00	24.8	24.8	24.8	80	19.5	2	5	225	0.00	30.007 
19:05	24.7	24.7	24.7	80	19.4	2	6	248	0.00	30.008 
19:10	24.7	24.7	24.7	79	19.1	3	7	270	0.00	30.010 
19:15	24.5	24.5	24.5	80	19.2	1	5	270	0.00	30.010 
19:20	24.5	24.5	24.5	79	18.9	3	7	248	0.00	30.011 
19:25	24.4	24.4	24.4	80	19.1	3	13	270	0.00	30.014 
19:30	24.2	24.2	24.2	80	18.9	3	10	248	0.00	30.016 
19:35	24.1	19.0	24.1	80	18.8	4	10	270	0.00	30.018 
19:40	24.1	24.1	24.1	81	19.1	2	7	270	0.00	30.020 
19:45	24.1	24.1	24.1	81	19.1	3	10	248	0.00	30.018 
19:50	23.9	23.9	23.9	81	18.9	3	9	270	0.00	30.020 
19:55	23.9	23.9	23.9	81	18.9	3	7	270	0.00	30.020 
20:00	23.8	23.8	23.8	81	18.8	3	10	270	0.00	30.020 
20:05	23.8	23.8	23.8	81	18.8	3	7	270	0.00	30.019 
20:10	23.6	23.6	23.6	82	18.9	3	8	248	0.00	30.014 
20:15	23.5	23.5	23.5	82	18.8	3	9	248	0.00	30.015 
20:20	23.5	23.5	23.5	82	18.8	3	11	270	0.00	30.015 
20:25	23.3	18.0	23.3	82	18.6	4	9	270	0.00	30.016 
20:30	23.3	23.3	23.3	82	18.6	3	6	248	0.00	30.015 
20:35	23.3	16.9	23.3	82	18.6	5	14	248	0.00	30.019 
20:40	23.2	23.2	23.2	82	18.5	3	10	248	0.00	30.020 
20:45	23.2	17.9	23.2	82	18.5	4	10	248	0.00	30.018 
20:50	23.0	23.0	23.0	83	18.6	3	9	248	0.00	30.019 
20:55	23.0	23.0	23.0	84	18.9	1	4	248	0.00	30.015 
21:00	22.9	22.9	22.9	84	18.8	2	5	248	0.00	30.016 
21:05	22.7	22.7	22.7	84	18.6	3	9	270	0.00	30.017 
21:10	22.5	22.5	22.5	84	18.4	3	10	248	0.00	30.015 
21:15	22.4	22.4	22.4	84	18.3	2	6	248	0.00	30.016 
21:20	22.4	22.4	22.4	84	18.3	3	10	270	0.00	30.016 
21:25	22.4	17.0	22.4	84	18.3	4	11	270	0.00	30.016 
21:30	22.4	22.4	22.4	84	18.3	2	6	270	0.00	30.015 
21:35	22.4	22.4	22.4	84	18.3	3	11	270	0.00	30.014 
21:40	22.4	22.4	22.4	84	18.3	2	9	270	0.00	30.014 
21:45	22.2	22.2	22.2	84	18.1	2	7	270	0.00	30.014 
21:50	22.2	22.2	22.2	84	18.1	3	9	248	0.00	30.014 
21:55	22.2	22.2	22.2	84	18.1	3	9	248	0.00	30.014 
22:00	22.2	22.2	22.2	84	18.1	2	5	248	0.00	30.013 
22:05	22.2	22.2	22.2	84	18.1	2	5	248	0.00	30.010 
22:10	22.2	22.2	22.2	85	18.4	2	6	248	0.00	30.010 
22:15	22.1	22.1	22.1	85	18.3	2	6	248	0.00	30.008 
22:20	22.1	22.1	22.1	85	18.3	3	10	248	0.00	30.006 
22:25	22.1	22.1	22.1	85	18.3	2	6	248	0.00	30.007 
22:30	22.1	22.1	22.1	86	18.6	3	6	270	0.00	30.001 
22:35	21.9	21.9	21.9	86	18.4	3	8	270	0.00	30.000 
22:40	21.9	16.4	21.9	85	18.1	4	12	270	0.00	30.001 
22:45	21.9	21.9	21.9	85	18.1	2	6	270	0.00	30.000 
22:50	21.8	21.8	21.8	85	18.0	3	7	270	0.00	29.999 
22:55	21.8	21.8	21.8	85	18.0	3	11	248	0.00	30.002 
23:00	21.6	21.6	21.6	85	17.8	2	6	270	0.00	30.001 
23:05	21.6	21.6	21.6	85	17.8	3	7	270	0.00	30.000 
23:10	21.6	21.6	21.6	84	17.5	2	6	270	0.00	29.998 
23:15	21.6	21.6	21.6	84	17.5	2	6	270	0.00	29.998 
23:20	21.4	15.8	21.4	83	17.1	4	11	270	0.00	29.998 
23:25	21.4	21.4	21.4	83	17.1	3	11	270	0.00	29.998 
23:30	21.4	21.4	21.4	83	17.1	3	9	270	0.00	29.997 
23:35	21.4	21.4	21.4	83	17.1	3	10	270	0.00	29.995 
23:40	21.3	15.7	21.3	83	17.0	4	10	270	0.00	29.995 
23:45	21.3	15.7	21.3	83	17.0	4	9	270	0.00	29.991 
23:50	21.1	21.1	21.1	84	17.0	3	12	270	0.00	29.993 
23:55	21.1	21.1	21.1	84	17.0	2	11	270	0.00	29.996 

CoCoRaHS
IN-AL-39
A2 Web Hosting
Creative Commons License
GoDaddy
Look for:

loaded 2017-10-18 07:23:17 • last modified 2010-11-18 10:43:29
Privacy PolicyDisclaimer
• wx.awcolley.com is powered by PmWiki v.2002016 •
• all content (unless otherwise noted) © 2017 A W Colley